Hlavní strana
METAR-TAF:

METAR-TAF

Letiště :

Ängelholm–Helsingborg

Helsingborg, Švédsko

zeměpisná šířka: 56-17-46N, zeměpisná délka: 012-50-50E, výška: 21 m

Aktuální stav počasí

Zpráva byla vytvořena před 35 minutami, v 11:20 UTC
Jihovýchodní vítr 19 kt
Teplota 20°C
Vlhkost vzduchu 37%
Tlak 998 hPa
Viditelnost 10 km a více
Žádná oblačnost pod 1500 m, nevyskytují se cumulonimby.

METAR: ESTA 041120Z 13019KT CAVOK 20/05 Q0998

Čas: 13:55 (11:55 UTC)

Předpověď počasí

Zpráva byla vytvořena před 3 hodinami a 50 minutami, v 08:05 UTC
Předpověď platná od 04 v 09 UTC do 04 v 13 UTC
Východojihovýchodní vítr 15 kt
Viditelnost 10 km a více
Žádná oblačnost pod 1500 m, nevyskytují se cumulonimby.
Dočasný
od 04 v 09 UTC do 04 v 13 UTC
Východojihovýchodní vítr 18 kt s nárazy do 30 kt

TAF: ESTA 040805Z 0409/0413 12015KT CAVOK TEMPO 0409/0413 12018G30KT

Stav a předpovědi počasí z více než 4 000 letišť (zprávy METAR a TAF).

Červené a žluté tečky na mapě představují dostupné meteorologické stanice.

Když kurzor umístíte na tečku, zobrazí se název stanice.

Pak kliknutím zobrazíte stav a předpověď počasí.

Chcete-li změnit mapu, kliknutím na zelené tlačítko se znaménkem +mapu přiblížíte, kliknutím na zelené tlačítko se znaménkem – mapu oddálíte a kliknutím na zelené šipky přejdete na sousední mapy.


METAR-TAF: